createdAt,value
2017-05-27T00:00:02.713Z,1009.91
2017-05-27T00:10:03.303Z,1009.84
2017-05-27T00:20:03.239Z,1009.82
2017-05-27T00:30:02.664Z,1009.81
2017-05-27T00:40:03.130Z,1009.74
2017-05-27T00:50:02.424Z,1009.71
2017-05-27T01:00:02.914Z,1009.73
2017-05-27T01:10:02.797Z,1009.76
2017-05-27T01:20:02.986Z,1009.76
2017-05-27T01:30:02.427Z,1009.75
2017-05-27T01:40:02.894Z,1009.56
2017-05-27T01:50:02.644Z,1009.62
2017-05-27T02:00:03.168Z,1009.55
2017-05-27T02:10:02.402Z,1009.54
2017-05-27T02:20:03.129Z,1009.64
2017-05-27T02:30:02.602Z,1009.63
2017-05-27T02:40:03.122Z,1009.51
2017-05-27T02:50:02.565Z,1009.55
2017-05-27T03:00:03.031Z,1009.63
2017-05-27T03:10:03.115Z,1009.58
2017-05-27T03:20:02.679Z,1009.54
2017-05-27T03:30:03.124Z,1009.48
2017-05-27T03:40:03.322Z,1009.59
2017-05-27T03:50:03.210Z,1009.66
2017-05-27T04:00:02.710Z,1009.81
2017-05-27T04:10:03.196Z,1009.76
2017-05-27T04:20:03.137Z,1009.84
2017-05-27T04:30:02.615Z,1009.88
2017-05-27T04:40:02.572Z,1009.88
2017-05-27T04:50:03.197Z,1009.91
2017-05-27T05:00:02.550Z,1009.8
2017-05-27T05:10:03.164Z,1009.82
2017-05-27T05:20:02.722Z,1009.91
2017-05-27T05:30:03.169Z,1010.15
2017-05-27T05:40:02.444Z,1010.17
2017-05-27T05:50:03.053Z,1010.13
2017-05-27T06:00:02.519Z,1010.19
2017-05-27T06:10:02.639Z,1010.32
2017-05-27T06:20:02.898Z,1010.29
2017-05-27T06:30:02.382Z,1010.25
2017-05-27T06:40:02.871Z,1010.15
2017-05-27T06:50:03.145Z,1010.21
2017-05-27T07:00:02.641Z,1010.01
2017-05-27T07:10:03.344Z,1009.85
2017-05-27T07:20:02.616Z,1009.79
2017-05-27T07:30:03.072Z,1009.75
2017-05-27T07:40:02.861Z,1009.71
2017-05-27T07:50:02.475Z,1009.97
2017-05-27T08:00:02.966Z,1009.96
2017-05-27T08:10:03.066Z,1009.78
2017-05-27T08:20:02.937Z,1009.89
2017-05-27T08:30:02.417Z,1009.81
2017-05-27T08:40:03.045Z,1009.85
2017-05-27T08:50:03.060Z,1009.93
2017-05-27T09:00:02.491Z,1009.86
2017-05-27T09:10:03.058Z,1009.74
2017-05-27T09:20:02.903Z,1009.8
2017-05-27T09:30:02.368Z,1009.6
2017-05-27T09:40:02.917Z,1009.62
2017-05-27T09:50:02.499Z,1009.68
2017-05-27T10:00:02.999Z,1009.78
2017-05-27T10:10:02.686Z,1009.9
2017-05-27T10:20:03.337Z,1009.9
2017-05-27T10:30:02.777Z,1009.77
2017-05-27T10:40:03.339Z,1009.58
2017-05-27T10:50:03.070Z,1009.55
2017-05-27T11:00:02.588Z,1009.52
2017-05-27T11:10:02.509Z,1009.37
2017-05-27T11:20:03.129Z,1009.16
2017-05-27T11:30:02.574Z,1009.18
2017-05-27T11:40:02.467Z,1009.13
2017-05-27T11:50:02.687Z,1009.06
2017-05-27T12:00:03.153Z,1008.88
2017-05-27T12:10:02.449Z,1008.83
2017-05-27T12:20:02.572Z,1008.62
2017-05-27T12:30:03.015Z,1008.45
2017-05-27T12:40:03.023Z,1008.33
2017-05-27T12:50:02.803Z,1008.29
2017-05-27T13:00:03.259Z,1008.35
2017-05-27T13:10:02.988Z,1008.44
2017-05-27T13:20:02.707Z,1008.25
2017-05-27T13:30:03.131Z,1008.05
2017-05-27T13:40:02.916Z,1008.03
2017-05-27T13:50:02.767Z,1007.88
2017-05-27T14:00:03.281Z,1007.85
2017-05-27T14:10:03.162Z,1007.87
2017-05-27T14:20:02.790Z,1007.86
2017-05-27T14:30:03.267Z,1007.93
2017-05-27T14:40:02.796Z,1007.85
2017-05-27T14:50:03.181Z,1007.79
2017-05-27T15:00:02.669Z,1007.89
2017-05-27T15:10:02.887Z,1007.8
2017-05-27T15:20:02.547Z,1007.7
2017-05-27T15:30:03.016Z,1007.56
2017-05-27T15:40:02.710Z,1007.48
2017-05-27T15:50:02.746Z,1007.52
2017-05-27T16:00:03.229Z,1007.47
2017-05-27T16:10:03.246Z,1007.38
2017-05-27T16:20:02.477Z,1007.32
2017-05-27T16:30:02.982Z,1007.35
2017-05-27T16:40:02.485Z,1007.12
2017-05-27T16:50:03.025Z,1007.18
2017-05-27T17:00:02.501Z,1006.95
2017-05-27T17:10:03.078Z,1006.97
2017-05-27T17:20:02.835Z,1007.02
2017-05-27T17:30:03.317Z,1007.06
2017-05-27T17:40:02.959Z,1007.04
2017-05-27T17:50:02.742Z,1007.03
2017-05-27T18:00:03.186Z,1007.03
2017-05-27T18:10:03.246Z,1007.17
2017-05-27T18:20:03.114Z,1007.16
2017-05-27T18:30:02.569Z,1007.26
2017-05-27T18:40:03.338Z,1007.22
2017-05-27T18:50:02.753Z,1007.37
2017-05-27T19:00:03.307Z,1007.43
2017-05-27T19:10:02.913Z,1007.34
2017-05-27T19:20:03.200Z,1007.3
2017-05-27T19:30:02.686Z,1007.44
2017-05-27T19:40:03.157Z,1007.49
2017-05-27T19:50:03.115Z,1007.47
2017-05-27T20:00:02.632Z,1007.52
2017-05-27T20:10:02.953Z,1007.44
2017-05-27T20:20:02.969Z,1007.47
2017-05-27T20:30:02.462Z,1007.52
2017-05-27T20:40:03.332Z,1007.53
2017-05-27T20:50:02.825Z,1007.51
2017-05-27T21:00:03.336Z,1007.5
2017-05-27T21:10:03.199Z,1007.49
2017-05-27T21:20:02.448Z,1007.5
2017-05-27T21:30:03.007Z,1007.45
2017-05-27T21:40:02.730Z,1007.51
2017-05-27T21:50:02.406Z,1007.46
2017-05-27T22:00:02.939Z,1007.54
2017-05-27T22:10:03.296Z,1007.46
2017-05-27T22:20:02.719Z,1007.47
2017-05-27T22:30:03.148Z,1007.46
2017-05-27T22:40:02.792Z,1007.49
2017-05-27T22:50:02.603Z,1007.31
2017-05-27T23:00:03.090Z,1007.29
2017-05-27T23:10:03.227Z,1007.3
2017-05-27T23:20:03.278Z,1007.21
2017-05-27T23:30:02.709Z,1007.18
2017-05-27T23:40:02.696Z,1007.03
2017-05-27T23:50:03.147Z,1006.95
